createdAt,value
2022-08-07T00:01:44.686Z,60.76
2022-08-07T00:04:00.833Z,61.07
2022-08-07T00:06:33.648Z,61.05
2022-08-07T00:09:16.807Z,61.16
2022-08-07T00:11:55.615Z,61.75
2022-08-07T00:14:25.309Z,61.65
2022-08-07T00:16:57.524Z,61.76
2022-08-07T00:19:26.014Z,62.13
2022-08-07T00:22:03.380Z,62.50
2022-08-07T00:24:31.751Z,62.67
2022-08-07T00:27:07.144Z,62.81
2022-08-07T00:29:37.046Z,62.65
2022-08-07T00:32:05.827Z,63.00
2022-08-07T00:34:33.499Z,63.20
2022-08-07T00:37:02.891Z,63.46
2022-08-07T00:39:32.037Z,63.81
2022-08-07T00:42:04.976Z,63.83
2022-08-07T00:44:33.810Z,63.94
2022-08-07T00:47:06.380Z,63.90
2022-08-07T00:50:20.193Z,63.70
2022-08-07T00:52:29.229Z,63.86
2022-08-07T00:55:04.984Z,63.26
2022-08-07T00:57:37.188Z,63.34
2022-08-07T01:00:08.279Z,63.92
2022-08-07T01:02:35.627Z,63.60
2022-08-07T01:05:18.840Z,64.09
2022-08-07T01:07:46.268Z,64.32
2022-08-07T01:10:17.062Z,64.29
2022-08-07T01:12:54.178Z,64.51
2022-08-07T01:15:23.106Z,65.08
2022-08-07T01:18:09.721Z,65.22
2022-08-07T01:20:44.663Z,65.33
2022-08-07T01:23:34.635Z,65.65
2022-08-07T01:26:08.352Z,65.85
2022-08-07T01:28:41.695Z,66.07
2022-08-07T01:31:15.214Z,66.74
2022-08-07T01:33:56.141Z,67.32
2022-08-07T01:36:33.239Z,67.55
2022-08-07T01:39:00.428Z,68.32
2022-08-07T01:41:27.821Z,68.74
2022-08-07T01:43:54.511Z,69.12
2022-08-07T01:46:21.385Z,69.27
2022-08-07T01:48:49.139Z,69.41
2022-08-07T01:52:01.010Z,69.29
2022-08-07T01:54:19.190Z,69.18
2022-08-07T01:57:01.481Z,69.23
2022-08-07T01:59:43.804Z,69.28
2022-08-07T02:02:32.668Z,69.32
2022-08-07T02:05:07.538Z,69.27
2022-08-07T02:07:50.432Z,69.81
2022-08-07T02:10:22.398Z,69.58
2022-08-07T02:12:50.290Z,68.70
2022-08-07T02:15:22.724Z,69.26
2022-08-07T02:17:51.800Z,69.25
2022-08-07T02:20:23.878Z,69.92
2022-08-07T02:22:59.913Z,70.24
2022-08-07T02:26:10.547Z,69.87
2022-08-07T02:28:24.588Z,69.74
2022-08-07T02:30:54.963Z,69.80
2022-08-07T02:33:24.793Z,70.30
2022-08-07T02:36:29.409Z,70.59
2022-08-07T02:39:01.055Z,69.84
2022-08-07T02:41:33.581Z,70.28
2022-08-07T02:44:05.070Z,70.34
2022-08-07T02:46:34.220Z,70.03
2022-08-07T02:49:05.586Z,70.92
2022-08-07T02:51:42.510Z,71.25
2022-08-07T02:54:18.403Z,71.25
2022-08-07T02:56:47.973Z,71.18
2022-08-07T02:59:19.743Z,71.06
2022-08-07T03:01:52.049Z,70.62
2022-08-07T03:04:24.025Z,70.80
2022-08-07T03:06:52.700Z,71.16
2022-08-07T03:09:43.870Z,71.32
2022-08-07T03:12:21.781Z,71.35
2022-08-07T03:14:52.197Z,71.61
2022-08-07T03:17:19.918Z,71.94
2022-08-07T03:19:52.842Z,72.32
2022-08-07T03:22:24.144Z,72.58
2022-08-07T03:24:57.241Z,73.14
2022-08-07T03:27:30.355Z,73.04
2022-08-07T03:29:58.704Z,72.82
2022-08-07T03:32:31.294Z,72.92
2022-08-07T03:35:17.354Z,73.03
2022-08-07T03:37:54.119Z,72.98
2022-08-07T03:40:23.464Z,73.06
2022-08-07T03:42:55.360Z,73.15
2022-08-07T03:45:31.092Z,73.13
2022-08-07T03:47:59.209Z,73.31
2022-08-07T03:50:28.572Z,73.81
2022-08-07T03:52:58.357Z,74.06
2022-08-07T03:55:53.371Z,74.67
2022-08-07T03:59:04.710Z,75.09
2022-08-07T04:01:02.058Z,75.18
2022-08-07T04:03:29.114Z,75.65
2022-08-07T04:06:37.296Z,75.24
2022-08-07T04:09:05.981Z,75.37
2022-08-07T04:12:21.536Z,75.74
2022-08-07T04:14:38.401Z,75.83
2022-08-07T04:17:20.583Z,76.11
2022-08-07T04:19:52.939Z,76.34
2022-08-07T04:22:27.550Z,76.11
2022-08-07T04:24:56.136Z,75.72
2022-08-07T04:27:25.840Z,75.66
2022-08-07T04:30:02.230Z,75.91
2022-08-07T04:32:34.507Z,75.86
2022-08-07T04:35:06.399Z,75.80
2022-08-07T04:38:01.091Z,76.08
2022-08-07T04:40:26.869Z,76.06
2022-08-07T04:43:01.253Z,75.47
2022-08-07T04:46:00.328Z,75.41
2022-08-07T04:48:40.388Z,75.40
2022-08-07T04:51:27.718Z,75.11
2022-08-07T04:54:16.050Z,74.96
2022-08-07T04:58:16.317Z,74.58
2022-08-07T05:00:11.563Z,74.46
2022-08-07T05:03:02.917Z,74.00
2022-08-07T05:05:52.171Z,73.27
2022-08-07T05:08:59.047Z,72.64
2022-08-07T05:11:57.276Z,71.10
2022-08-07T05:14:52.256Z,71.72
2022-08-07T05:17:51.829Z,71.72
2022-08-07T05:20:09.859Z,71.06
2022-08-07T05:22:39.046Z,70.72
2022-08-07T05:25:08.461Z,70.20
2022-08-07T05:28:15.901Z,70.08
2022-08-07T05:30:32.415Z,69.75
2022-08-07T05:33:05.065Z,68.63
2022-08-07T05:35:41.957Z,68.78
2022-08-07T05:38:10.612Z,69.00
2022-08-07T05:40:50.632Z,68.97
2022-08-07T05:43:19.284Z,68.83
2022-08-07T05:46:06.585Z,68.96
2022-08-07T05:48:34.055Z,68.61
2022-08-07T05:51:04.267Z,67.95
2022-08-07T05:54:11.908Z,68.13
2022-08-07T05:56:19.754Z,67.79
2022-08-07T05:58:49.246Z,66.90
2022-08-07T06:01:20.736Z,66.83
2022-08-07T06:03:56.940Z,66.77
2022-08-07T06:06:29.503Z,66.16
2022-08-07T06:08:57.461Z,65.71
2022-08-07T06:11:25.207Z,65.77
2022-08-07T06:14:13.740Z,65.37
2022-08-07T06:16:40.094Z,64.94
2022-08-07T06:19:08.042Z,64.96
2022-08-07T06:22:15.684Z,64.48
2022-08-07T06:24:48.190Z,64.22
2022-08-07T06:27:59.852Z,63.53
2022-08-07T06:30:32.064Z,63.01
2022-08-07T06:32:57.486Z,62.09
2022-08-07T06:35:23.934Z,61.33
2022-08-07T06:37:58.224Z,61.18
2022-08-07T06:40:34.307Z,60.86
2022-08-07T06:43:04.388Z,60.47
2022-08-07T06:45:47.690Z,59.82
2022-08-07T06:48:14.433Z,59.70
2022-08-07T06:50:43.281Z,59.55
2022-08-07T06:55:29.249Z,58.98
2022-08-07T06:56:15.446Z,58.60
2022-08-07T07:00:13.187Z,57.22
2022-08-07T07:01:33.267Z,57.67
2022-08-07T07:04:28.080Z,58.33
2022-08-07T07:07:00.993Z,57.48
2022-08-07T07:09:31.176Z,56.60
2022-08-07T07:12:35.266Z,56.24
2022-08-07T07:15:24.104Z,55.28
2022-08-07T07:17:55.242Z,54.12
2022-08-07T07:20:33.532Z,53.22
2022-08-07T07:24:08.079Z,52.80
2022-08-07T07:26:34.088Z,52.76
2022-08-07T07:29:28.413Z,51.61
2022-08-07T07:31:44.660Z,50.98
2022-08-07T07:34:19.915Z,51.71
2022-08-07T07:36:53.787Z,51.33
2022-08-07T07:39:25.639Z,50.80
2022-08-07T07:42:08.816Z,50.74
2022-08-07T07:44:43.552Z,50.72
2022-08-07T07:47:15.890Z,49.99
2022-08-07T07:50:32.444Z,49.50
2022-08-07T07:52:48.428Z,48.75
2022-08-07T07:55:17.963Z,48.59
2022-08-07T07:57:51.901Z,48.87
2022-08-07T08:00:29.683Z,48.67
2022-08-07T08:03:16.603Z,47.78
2022-08-07T08:05:54.131Z,43.13
2022-08-07T08:08:34.463Z,40.86
2022-08-07T08:11:08.117Z,38.54
2022-08-07T08:13:52.749Z,40.32
2022-08-07T08:16:26.181Z,36.18
2022-08-07T08:18:57.703Z,36.47
2022-08-07T08:22:02.798Z,35.90
2022-08-07T08:24:57.109Z,36.43
2022-08-07T08:27:34.587Z,35.79
2022-08-07T08:30:14.413Z,33.67
2022-08-07T08:32:59.495Z,32.76
2022-08-07T08:35:28.726Z,33.46
2022-08-07T08:38:06.818Z,33.84
2022-08-07T08:40:47.015Z,36.33
2022-08-07T08:43:42.937Z,34.52
2022-08-07T08:46:38.918Z,32.93
2022-08-07T08:49:16.621Z,36.24
2022-08-07T08:52:13.160Z,33.48
2022-08-07T08:54:49.803Z,34.59
2022-08-07T08:57:27.429Z,35.87
2022-08-07T09:00:02.396Z,34.05
2022-08-07T09:02:49.675Z,35.79
2022-08-07T09:05:50.546Z,34.35
2022-08-07T09:08:41.253Z,32.54
2022-08-07T09:11:24.493Z,30.49
2022-08-07T09:14:34.789Z,27.37
2022-08-07T09:17:03.372Z,30.37
2022-08-07T09:19:55.168Z,32.32
2022-08-07T09:24:32.441Z,33.82
2022-08-07T09:25:42.075Z,32.30
2022-08-07T09:30:03.759Z,31.71
2022-08-07T09:31:27.653Z,29.10
2022-08-07T09:34:21.503Z,27.32
2022-08-07T09:37:14.314Z,28.58
2022-08-07T09:39:55.161Z,27.61
2022-08-07T09:42:54.269Z,27.26
2022-08-07T09:47:24.823Z,26.52
2022-08-07T09:48:30.088Z,26.17
2022-08-07T09:52:15.459Z,25.93
2022-08-07T09:54:40.145Z,26.04
2022-08-07T09:57:21.664Z,24.84
2022-08-07T10:00:07.726Z,26.99
2022-08-07T10:04:03.067Z,27.62
2022-08-07T10:06:27.791Z,27.76
2022-08-07T10:09:00.244Z,25.76
2022-08-07T10:12:15.481Z,27.14
2022-08-07T10:15:03.988Z,26.12
2022-08-07T10:18:00.856Z,26.26
2022-08-07T10:21:08.676Z,26.04
2022-08-07T10:24:21.335Z,26.40
2022-08-07T10:27:10.449Z,27.15
2022-08-07T10:30:06.566Z,27.29
2022-08-07T10:33:08.393Z,27.86
2022-08-07T10:35:55.811Z,26.70
2022-08-07T10:38:47.903Z,26.57
2022-08-07T10:41:51.350Z,26.11
2022-08-07T10:44:45.431Z,25.42
2022-08-07T10:47:53.683Z,25.01
2022-08-07T10:50:25.663Z,25.12
2022-08-07T10:53:05.119Z,25.67
2022-08-07T10:56:04.200Z,24.61
2022-08-07T10:58:59.616Z,27.29
2022-08-07T11:02:12.475Z,26.91
2022-08-07T11:05:24.530Z,25.16
2022-08-07T11:08:31.343Z,25.03
2022-08-07T11:11:20.193Z,24.96
2022-08-07T11:14:57.057Z,24.45
2022-08-07T11:17:02.184Z,26.69
2022-08-07T11:19:46.450Z,27.32
2022-08-07T11:22:38.238Z,24.95
2022-08-07T11:25:41.293Z,24.61
2022-08-07T11:28:26.965Z,23.68
2022-08-07T11:31:03.183Z,24.66
2022-08-07T11:33:59.356Z,25.26
2022-08-07T11:36:45.584Z,27.19
2022-08-07T11:39:59.232Z,26.01
2022-08-07T11:42:37.701Z,25.13
2022-08-07T11:45:36.819Z,26.52
2022-08-07T11:49:10.282Z,25.11
2022-08-07T11:52:12.580Z,24.11
2022-08-07T11:54:56.210Z,25.10
2022-08-07T11:58:00.111Z,24.48
2022-08-07T12:01:02.584Z,23.00
2022-08-07T12:03:53.394Z,23.50
2022-08-07T12:06:55.396Z,23.13
2022-08-07T12:09:41.554Z,24.63
2022-08-07T12:12:17.749Z,22.98
2022-08-07T12:15:01.149Z,22.40
2022-08-07T12:17:58.989Z,24.11
2022-08-07T12:20:33.242Z,24.33
2022-08-07T12:23:16.358Z,24.54
2022-08-07T12:26:23.370Z,26.44
2022-08-07T12:29:03.605Z,24.70
2022-08-07T12:32:02.253Z,24.68
2022-08-07T12:34:35.915Z,25.86
2022-08-07T12:37:08.629Z,26.92
2022-08-07T12:39:52.217Z,25.04
2022-08-07T12:42:27.511Z,23.31
2022-08-07T12:44:57.986Z,24.36
2022-08-07T12:47:45.598Z,22.05
2022-08-07T12:50:33.985Z,23.45
2022-08-07T12:53:17.389Z,22.10
2022-08-07T12:56:12.305Z,21.56
2022-08-07T12:58:42.926Z,22.61
2022-08-07T13:01:42.062Z,24.13
2022-08-07T13:04:34.631Z,24.43
2022-08-07T13:08:12.638Z,26.73
2022-08-07T13:10:39.603Z,25.28
2022-08-07T13:13:46.874Z,23.72
2022-08-07T13:16:36.693Z,22.42
2022-08-07T13:19:21.945Z,22.48
2022-08-07T13:22:19.702Z,23.32
2022-08-07T13:25:00.470Z,25.43
2022-08-07T13:28:11.078Z,25.41
2022-08-07T13:30:41.246Z,24.43
2022-08-07T13:34:30.139Z,24.20
2022-08-07T13:36:40.959Z,25.48
2022-08-07T13:39:28.372Z,24.78
2022-08-07T13:42:03.095Z,24.43
2022-08-07T13:44:36.811Z,24.62
2022-08-07T13:47:09.340Z,24.43
2022-08-07T13:50:34.785Z,22.92
2022-08-07T13:52:41.080Z,23.27
2022-08-07T13:55:19.660Z,21.05
2022-08-07T13:58:27.870Z,23.30
2022-08-07T14:01:08.882Z,22.72
2022-08-07T14:04:07.352Z,21.18
2022-08-07T14:06:38.441Z,21.61
2022-08-07T14:09:06.357Z,21.94
2022-08-07T14:12:00.110Z,22.46
2022-08-07T14:14:41.108Z,23.26
2022-08-07T14:17:32.329Z,23.67
2022-08-07T14:20:42.635Z,22.94
2022-08-07T14:23:00.774Z,22.45
2022-08-07T14:25:39.427Z,22.24
2022-08-07T14:28:15.272Z,21.51
2022-08-07T14:30:51.886Z,21.48
2022-08-07T14:33:22.452Z,20.94
2022-08-07T14:36:03.102Z,20.96
2022-08-07T14:41:34.065Z,23.84
2022-08-07T14:44:16.221Z,24.14
2022-08-07T14:49:57.134Z,23.19
2022-08-07T14:52:27.803Z,21.80
2022-08-07T14:54:58.608Z,23.69
2022-08-07T14:57:54.912Z,22.67
2022-08-07T15:03:19.324Z,22.38
2022-08-07T15:05:54.236Z,23.45
2022-08-07T15:08:34.768Z,23.96
2022-08-07T15:11:06.251Z,23.54
2022-08-07T15:13:37.769Z,23.44
2022-08-07T15:16:11.085Z,22.50
2022-08-07T15:18:44.108Z,23.67
2022-08-07T15:25:15.127Z,23.74
2022-08-07T15:27:05.238Z,23.22
2022-08-07T15:30:10.104Z,23.89
2022-08-07T15:32:39.538Z,23.63
2022-08-07T15:35:17.205Z,23.57
2022-08-07T15:38:17.754Z,22.59
2022-08-07T15:40:35.734Z,24.56
2022-08-07T15:43:53.196Z,23.68
2022-08-07T15:49:11.975Z,22.90
2022-08-07T15:54:39.376Z,23.76
2022-08-07T15:57:10.813Z,22.93
2022-08-07T15:59:59.201Z,23.41
2022-08-07T16:02:29.060Z,23.44
2022-08-07T16:05:15.437Z,23.73
2022-08-07T16:08:31.234Z,23.65
2022-08-07T16:10:37.446Z,23.60
2022-08-07T16:13:57.544Z,23.05
2022-08-07T16:16:48.492Z,23.37
2022-08-07T16:19:41.868Z,23.11
2022-08-07T16:22:37.653Z,23.71
2022-08-07T16:25:54.831Z,23.81
2022-08-07T16:29:18.370Z,24.26
2022-08-07T16:31:57.154Z,23.62
2022-08-07T16:34:48.374Z,23.85
2022-08-07T16:38:04.470Z,25.32
2022-08-07T16:40:57.108Z,25.74
2022-08-07T16:44:46.259Z,25.10
2022-08-07T16:47:51.200Z,24.90
2022-08-07T16:50:39.245Z,25.34
2022-08-07T16:54:01.170Z,24.88
2022-08-07T16:56:32.291Z,24.80
2022-08-07T16:59:17.360Z,24.50
2022-08-07T17:02:09.022Z,24.38
2022-08-07T17:04:59.043Z,24.11
2022-08-07T17:07:55.916Z,25.06
2022-08-07T17:10:33.879Z,25.26
2022-08-07T17:13:03.462Z,25.61
2022-08-07T17:15:44.170Z,25.46
2022-08-07T17:18:36.697Z,25.75
2022-08-07T17:21:19.142Z,25.99
2022-08-07T17:24:23.830Z,25.89
2022-08-07T17:27:07.046Z,25.74
2022-08-07T17:30:14.765Z,25.73
2022-08-07T17:33:39.003Z,25.66
2022-08-07T17:36:19.959Z,25.74
2022-08-07T17:39:10.599Z,26.78
2022-08-07T17:42:04.102Z,26.56
2022-08-07T17:45:02.654Z,26.08
2022-08-07T17:47:38.165Z,25.98
2022-08-07T17:50:19.103Z,26.93
2022-08-07T17:53:00.486Z,27.34
2022-08-07T17:56:01.366Z,26.82
2022-08-07T17:58:30.494Z,27.19
2022-08-07T18:01:02.603Z,26.78
2022-08-07T18:04:04.673Z,27.70
2022-08-07T18:06:38.939Z,28.06
2022-08-07T18:09:16.214Z,28.21
2022-08-07T18:12:08.249Z,28.57
2022-08-07T18:14:44.937Z,29.14
2022-08-07T18:18:44.762Z,29.21
2022-08-07T18:21:10.405Z,29.28
2022-08-07T18:23:57.515Z,29.49
2022-08-07T18:26:44.792Z,30.08
2022-08-07T18:30:06.832Z,30.38
2022-08-07T18:33:10.850Z,30.65
2022-08-07T18:35:50.245Z,30.54
2022-08-07T18:38:59.651Z,30.95
2022-08-07T18:41:44.747Z,31.06
2022-08-07T18:45:45.032Z,31.80
2022-08-07T18:47:45.099Z,32.10
2022-08-07T18:50:39.182Z,32.30
2022-08-07T18:53:21.966Z,32.81
2022-08-07T18:56:37.820Z,33.42
2022-08-07T18:59:47.982Z,34.49
2022-08-07T19:02:45.061Z,35.29
2022-08-07T19:05:21.564Z,35.75
2022-08-07T19:07:58.879Z,36.30
2022-08-07T19:11:00.625Z,37.11
2022-08-07T19:13:58.789Z,37.77
2022-08-07T19:17:01.209Z,38.16
2022-08-07T19:19:37.792Z,38.68
2022-08-07T19:22:17.438Z,39.10
2022-08-07T19:24:49.953Z,39.38
2022-08-07T19:30:55.279Z,39.84
2022-08-07T19:31:04.456Z,40.13
2022-08-07T19:33:10.070Z,40.43
2022-08-07T19:35:40.282Z,40.58
2022-08-07T19:38:17.235Z,40.39
2022-08-07T19:40:50.360Z,40.73
2022-08-07T19:43:44.173Z,41.03
2022-08-07T19:46:16.072Z,41.78
2022-08-07T19:48:53.482Z,42.28
2022-08-07T19:51:51.311Z,41.73
2022-08-07T19:54:33.671Z,42.29
2022-08-07T19:57:51.327Z,42.66
2022-08-07T19:59:53.317Z,42.51
2022-08-07T20:02:51.820Z,42.53
2022-08-07T20:05:59.684Z,43.17
2022-08-07T20:08:24.394Z,43.04
2022-08-07T20:11:01.853Z,43.34
2022-08-07T20:13:53.468Z,43.38
2022-08-07T20:16:35.174Z,43.82
2022-08-07T20:19:05.257Z,43.75
2022-08-07T20:21:41.783Z,43.95
2022-08-07T20:24:18.080Z,44.39
2022-08-07T20:26:50.468Z,44.81
2022-08-07T20:29:49.129Z,45.03
2022-08-07T20:32:22.906Z,44.80
2022-08-07T20:34:54.970Z,44.88
2022-08-07T20:37:23.696Z,45.46
2022-08-07T20:40:03.293Z,45.32
2022-08-07T20:42:33.427Z,45.36
2022-08-07T20:45:01.300Z,45.71
2022-08-07T20:47:56.911Z,45.94
2022-08-07T20:50:20.512Z,45.55
2022-08-07T20:52:52.351Z,46.17
2022-08-07T20:55:23.559Z,46.07
2022-08-07T20:58:04.123Z,46.15
2022-08-07T21:00:44.443Z,46.45
2022-08-07T21:03:15.671Z,46.35
2022-08-07T21:05:54.918Z,46.77
2022-08-07T21:08:41.049Z,47.11
2022-08-07T21:11:14.221Z,47.58
2022-08-07T21:14:16.506Z,47.81
2022-08-07T21:16:46.962Z,47.72
2022-08-07T21:19:32.295Z,48.21
2022-08-07T21:22:15.384Z,48.10
2022-08-07T21:25:12.278Z,48.48
2022-08-07T21:28:02.475Z,48.12
2022-08-07T21:30:42.785Z,48.27
2022-08-07T21:33:38.303Z,48.35
2022-08-07T21:36:31.124Z,48.40
2022-08-07T21:39:45.494Z,48.50
2022-08-07T21:42:46.807Z,48.79
2022-08-07T21:46:11.114Z,48.78
2022-08-07T21:48:33.612Z,48.76
2022-08-07T21:51:19.763Z,48.57
2022-08-07T21:53:53.966Z,48.90
2022-08-07T21:56:47.915Z,49.45
2022-08-07T22:00:02.726Z,50.07
2022-08-07T22:02:30.807Z,50.09
2022-08-07T22:05:00.715Z,49.99
2022-08-07T22:07:31.557Z,50.56
2022-08-07T22:10:06.005Z,51.35
2022-08-07T22:12:49.588Z,51.04
2022-08-07T22:16:41.928Z,51.09
2022-08-07T22:18:35.453Z,51.91
2022-08-07T22:21:20.445Z,51.71
2022-08-07T22:23:52.906Z,51.86
2022-08-07T22:26:25.514Z,51.74
2022-08-07T22:29:14.991Z,51.29
2022-08-07T22:32:00.252Z,51.89
2022-08-07T22:34:49.702Z,52.36
2022-08-07T22:38:03.431Z,52.53
2022-08-07T22:40:50.092Z,52.45
2022-08-07T22:43:38.624Z,52.20
2022-08-07T22:47:03.426Z,52.32
2022-08-07T22:49:24.977Z,52.47
2022-08-07T22:52:39.643Z,52.58
2022-08-07T22:55:44.488Z,52.55
2022-08-07T22:58:48.373Z,52.67
2022-08-07T23:01:50.912Z,53.68
2022-08-07T23:04:58.091Z,53.98
2022-08-07T23:07:45.370Z,54.31
2022-08-07T23:10:39.561Z,53.89
2022-08-07T23:13:19.824Z,54.11
2022-08-07T23:16:06.185Z,54.03
2022-08-07T23:19:48.025Z,54.27
2022-08-07T23:22:29.565Z,54.39
2022-08-07T23:25:29.391Z,54.23
2022-08-07T23:28:28.451Z,54.54
2022-08-07T23:32:48.960Z,54.67
2022-08-07T23:34:38.311Z,54.54
2022-08-07T23:37:24.390Z,54.99
2022-08-07T23:40:23.069Z,55.16
2022-08-07T23:43:37.923Z,55.59
2022-08-07T23:46:12.527Z,55.49
2022-08-07T23:49:16.600Z,55.94
2022-08-07T23:53:00.188Z,56.15
2022-08-07T23:54:55.805Z,56.48
2022-08-07T23:57:44.166Z,56.28
